createdAt,value
2019-03-11T00:00:44.864Z,1.10
2019-03-11T00:03:17.044Z,1.33
2019-03-11T00:05:48.165Z,1.43
2019-03-11T00:08:19.436Z,1.30
2019-03-11T00:10:50.299Z,0.90
2019-03-11T00:13:20.759Z,0.90
2019-03-11T00:15:51.607Z,1.20
2019-03-11T00:18:22.029Z,1.10
2019-03-11T00:20:52.945Z,1.10
2019-03-11T00:23:23.556Z,1.20
2019-03-11T00:25:54.317Z,1.03
2019-03-11T00:28:24.821Z,1.03
2019-03-11T00:30:55.231Z,1.00
2019-03-11T00:33:25.725Z,1.00
2019-03-11T00:35:56.304Z,0.93
2019-03-11T00:38:27.092Z,1.10
2019-03-11T00:40:57.778Z,1.00
2019-03-11T00:43:28.658Z,0.80
2019-03-11T00:45:59.294Z,1.30
2019-03-11T00:48:31.503Z,1.13
2019-03-11T00:51:02.396Z,1.60
2019-03-11T00:53:32.873Z,0.83
2019-03-11T00:56:03.355Z,0.90
2019-03-11T00:58:36.626Z,0.80
2019-03-11T01:01:07.391Z,0.93
2019-03-11T01:03:37.836Z,1.10
2019-03-11T01:06:08.402Z,0.73
2019-03-11T01:08:38.819Z,1.20
2019-03-11T01:11:09.302Z,1.20
2019-03-11T01:13:40.059Z,1.30
2019-03-11T01:16:10.540Z,1.40
2019-03-11T01:18:40.983Z,0.93
2019-03-11T01:21:11.802Z,1.53
2019-03-11T01:23:42.270Z,0.97
2019-03-11T01:26:13.092Z,1.03
2019-03-11T01:28:43.895Z,0.90
2019-03-11T01:31:14.659Z,0.93
2019-03-11T01:33:45.206Z,1.00
2019-03-11T01:36:17.643Z,1.27
2019-03-11T01:38:50.158Z,1.07
2019-03-11T01:41:20.948Z,1.10
2019-03-11T01:43:51.380Z,1.40
2019-03-11T01:46:21.909Z,1.40
2019-03-11T01:48:52.377Z,0.90
2019-03-11T01:51:22.940Z,0.90
2019-03-11T01:53:55.584Z,0.70
2019-03-11T01:56:26.463Z,0.90
2019-03-11T01:58:56.987Z,0.73
2019-03-11T02:01:27.773Z,1.10
2019-03-11T02:03:58.298Z,1.17
2019-03-11T02:06:28.902Z,0.93
2019-03-11T02:09:02.543Z,1.00
2019-03-11T02:11:33.533Z,1.17
2019-03-11T02:14:04.140Z,1.50
2019-03-11T02:16:37.297Z,0.80
2019-03-11T02:19:08.190Z,0.80
2019-03-11T02:21:38.767Z,1.10
2019-03-11T02:24:10.383Z,1.00
2019-03-11T02:26:40.889Z,0.83
2019-03-11T02:29:13.467Z,0.90
2019-03-11T02:31:43.954Z,0.90
2019-03-11T02:34:14.544Z,1.40
2019-03-11T02:36:45.095Z,1.10
2019-03-11T02:39:17.396Z,1.00
2019-03-11T02:41:50.081Z,1.20
2019-03-11T02:44:20.580Z,1.03
2019-03-11T02:46:51.985Z,0.90
2019-03-11T02:49:22.552Z,0.80
2019-03-11T02:51:52.976Z,1.00
2019-03-11T02:54:23.826Z,1.03
2019-03-11T02:56:55.375Z,1.00
2019-03-11T02:59:25.862Z,0.90
2019-03-11T03:02:33.353Z,0.77
2019-03-11T03:05:11.723Z,1.10
2019-03-11T03:07:42.330Z,0.90
2019-03-11T03:10:14.441Z,0.80
2019-03-11T03:12:44.894Z,0.90
2019-03-11T03:15:17.313Z,1.37
2019-03-11T03:17:49.807Z,1.10
2019-03-11T03:20:20.638Z,1.00
2019-03-11T03:22:51.708Z,1.00
2019-03-11T03:25:33.888Z,1.20
2019-03-11T03:27:54.782Z,1.00
2019-03-11T03:30:25.726Z,1.10
2019-03-11T03:32:56.144Z,1.07
2019-03-11T03:35:26.671Z,1.00
2019-03-11T03:37:57.116Z,0.67
2019-03-11T03:40:27.607Z,0.90
2019-03-11T03:42:58.379Z,0.70
2019-03-11T03:45:34.759Z,0.77
2019-03-11T03:48:05.961Z,1.30
2019-03-11T03:50:38.171Z,0.70
2019-03-11T03:53:09.515Z,0.67
2019-03-11T03:55:40.139Z,1.00
2019-03-11T03:58:10.636Z,0.80
2019-03-11T04:00:41.937Z,0.97
2019-03-11T04:03:12.494Z,1.03
2019-03-11T04:05:43.282Z,0.90
2019-03-11T04:08:13.788Z,1.20
2019-03-11T04:10:44.253Z,0.90
2019-03-11T04:13:14.755Z,1.00
2019-03-11T04:15:45.296Z,0.80
2019-03-11T04:18:17.823Z,0.70
2019-03-11T04:20:49.432Z,1.03
2019-03-11T04:23:20.318Z,0.97
2019-03-11T04:25:51.102Z,0.80
2019-03-11T04:28:21.708Z,0.80
2019-03-11T04:30:52.859Z,1.23
2019-03-11T04:33:23.357Z,1.00
2019-03-11T04:35:53.864Z,1.00
2019-03-11T04:38:24.753Z,0.90
2019-03-11T04:40:55.471Z,1.00
2019-03-11T04:43:26.253Z,1.40
2019-03-11T04:45:56.734Z,0.90
2019-03-11T04:48:27.490Z,1.20
2019-03-11T04:50:58.638Z,0.90
2019-03-11T04:53:29.125Z,0.80
2019-03-11T04:55:59.820Z,1.00
2019-03-11T04:58:30.447Z,0.87
2019-03-11T05:01:00.973Z,1.17
2019-03-11T05:03:34.495Z,0.90
2019-03-11T05:06:05.312Z,1.00
2019-03-11T05:08:35.792Z,1.17
2019-03-11T05:11:08.842Z,1.00
2019-03-11T05:13:38.888Z,1.20
2019-03-11T05:16:15.307Z,1.23
2019-03-11T05:18:48.563Z,1.20
2019-03-11T05:21:19.129Z,1.23
2019-03-11T05:23:51.180Z,1.30
2019-03-11T05:26:24.412Z,1.27
2019-03-11T05:28:54.867Z,1.57
2019-03-11T05:31:25.382Z,1.27
2019-03-11T05:33:55.914Z,1.23
2019-03-11T05:36:26.385Z,1.30
2019-03-11T05:38:56.939Z,1.10
2019-03-11T05:41:27.427Z,1.60
2019-03-11T05:43:58.344Z,1.27
2019-03-11T05:46:29.041Z,1.33
2019-03-11T05:49:02.681Z,1.67
2019-03-11T05:51:33.198Z,1.93
2019-03-11T05:54:03.584Z,1.30
2019-03-11T05:56:34.536Z,1.33
2019-03-11T05:59:05.280Z,1.00
2019-03-11T06:01:36.305Z,1.40
2019-03-11T06:04:06.898Z,1.57
2019-03-11T06:06:38.402Z,1.73
2019-03-11T06:09:09.057Z,1.47
2019-03-11T06:11:39.503Z,1.20
2019-03-11T06:14:10.837Z,1.83
2019-03-11T06:16:41.328Z,1.20
2019-03-11T06:19:12.098Z,1.70
2019-03-11T06:21:54.990Z,1.80
2019-03-11T06:24:25.510Z,1.30
2019-03-11T06:26:56.289Z,1.60
2019-03-11T06:29:30.750Z,1.77
2019-03-11T06:31:59.120Z,1.73
2019-03-11T06:34:32.328Z,1.20
2019-03-11T06:37:03.140Z,1.57
2019-03-11T06:39:35.571Z,1.73
2019-03-11T06:42:06.049Z,2.17
2019-03-11T06:44:39.154Z,1.00
2019-03-11T06:47:09.762Z,1.70
2019-03-11T06:49:40.724Z,2.00
2019-03-11T06:52:11.637Z,1.20
2019-03-11T06:54:42.183Z,1.33
2019-03-11T06:57:12.953Z,1.80
2019-03-11T06:59:43.461Z,1.60
2019-03-11T07:02:14.493Z,1.53
2019-03-11T07:04:45.060Z,1.50
2019-03-11T07:07:15.613Z,1.70
2019-03-11T07:09:46.064Z,1.90
2019-03-11T07:12:16.648Z,2.10
2019-03-11T07:14:47.563Z,1.60
2019-03-11T07:17:18.257Z,1.70
2019-03-11T07:19:50.409Z,2.50
2019-03-11T07:22:21.056Z,2.30
2019-03-11T07:24:51.727Z,1.80
2019-03-11T07:27:22.271Z,2.30
2019-03-11T07:29:52.804Z,2.20
2019-03-11T07:32:23.295Z,2.40
2019-03-11T07:34:53.830Z,2.50
2019-03-11T07:37:24.636Z,2.20
2019-03-11T07:39:55.211Z,3.10
2019-03-11T07:42:25.703Z,2.00
2019-03-11T07:44:56.200Z,2.17
2019-03-11T07:47:28.396Z,2.53
2019-03-11T07:49:58.937Z,2.07
2019-03-11T07:52:29.561Z,1.93
2019-03-11T07:55:00.473Z,2.13
2019-03-11T07:57:30.930Z,2.10
2019-03-11T08:00:02.110Z,2.50
2019-03-11T08:02:32.623Z,2.20
2019-03-11T08:05:03.431Z,3.00
2019-03-11T08:07:33.939Z,2.63
2019-03-11T08:10:05.023Z,2.30
2019-03-11T08:12:35.611Z,1.80
2019-03-11T08:15:07.284Z,2.10
2019-03-11T08:17:37.701Z,2.83
2019-03-11T08:20:09.689Z,2.13
2019-03-11T08:22:41.869Z,2.87
2019-03-11T08:25:15.562Z,2.50
2019-03-11T08:27:46.342Z,2.47
2019-03-11T08:30:18.841Z,2.37
2019-03-11T08:32:52.233Z,2.30
2019-03-11T08:35:22.896Z,2.40
2019-03-11T08:37:54.143Z,2.27
2019-03-11T08:40:27.039Z,1.97
2019-03-11T08:42:57.530Z,2.50
2019-03-11T08:45:28.792Z,2.03
2019-03-11T08:47:59.635Z,3.57
2019-03-11T08:50:31.293Z,2.73
2019-03-11T08:53:05.041Z,2.83
2019-03-11T08:55:53.871Z,3.23
2019-03-11T08:58:26.407Z,2.20
2019-03-11T09:01:00.712Z,2.03
2019-03-11T09:03:32.510Z,1.93
2019-03-11T09:06:05.254Z,1.90
2019-03-11T09:08:41.222Z,2.90
2019-03-11T09:11:14.371Z,2.43
2019-03-11T09:13:51.067Z,2.70
2019-03-11T09:16:26.131Z,2.50
2019-03-11T09:18:57.084Z,2.43
2019-03-11T09:21:32.894Z,2.33
2019-03-11T09:24:18.642Z,2.13
2019-03-11T09:26:40.939Z,2.20
2019-03-11T09:29:13.398Z,2.10
2019-03-11T09:31:46.314Z,2.10
2019-03-11T09:34:17.990Z,2.70
2019-03-11T09:36:51.998Z,2.93
2019-03-11T09:39:22.571Z,2.63
2019-03-11T09:41:54.893Z,2.30
2019-03-11T09:44:27.379Z,2.60
2019-03-11T09:47:00.798Z,2.13
2019-03-11T09:49:32.769Z,2.47
2019-03-11T09:52:06.779Z,1.83
2019-03-11T09:54:40.379Z,2.87
2019-03-11T09:57:12.835Z,2.17
2019-03-11T09:59:44.555Z,2.13
2019-03-11T10:02:17.707Z,2.77
2019-03-11T10:04:52.275Z,3.03
2019-03-11T10:07:25.546Z,4.53
2019-03-11T10:09:57.093Z,3.10
2019-03-11T10:12:30.661Z,2.30
2019-03-11T10:15:05.002Z,2.67
2019-03-11T10:17:37.586Z,2.03
2019-03-11T10:20:11.176Z,2.73
2019-03-11T10:22:43.337Z,2.30
2019-03-11T10:25:17.024Z,2.40
2019-03-11T10:27:54.264Z,2.80
2019-03-11T10:30:26.892Z,2.60
2019-03-11T10:33:01.440Z,1.83
2019-03-11T10:35:35.981Z,2.67
2019-03-11T10:38:08.555Z,2.27
2019-03-11T10:40:57.371Z,1.70
2019-03-11T10:43:28.858Z,1.90
2019-03-11T10:46:01.945Z,2.50
2019-03-11T10:48:37.460Z,2.53
2019-03-11T10:51:26.337Z,2.60
2019-03-11T10:54:15.382Z,2.07
2019-03-11T10:56:50.088Z,2.10
2019-03-11T10:59:21.688Z,1.87
2019-03-11T11:01:53.313Z,2.03
2019-03-11T11:04:42.356Z,2.40
2019-03-11T11:07:13.955Z,2.80
2019-03-11T11:09:45.528Z,3.40
2019-03-11T11:12:17.752Z,2.70
2019-03-11T11:14:50.233Z,2.53
2019-03-11T11:17:24.759Z,2.20
2019-03-11T11:20:03.188Z,2.60
2019-03-11T11:22:33.872Z,2.70
2019-03-11T11:25:16.496Z,2.30
2019-03-11T11:27:55.069Z,2.30
2019-03-11T11:30:32.306Z,2.20
2019-03-11T11:33:06.085Z,2.70
2019-03-11T11:35:39.971Z,1.97
2019-03-11T11:38:12.218Z,1.90
2019-03-11T11:40:49.168Z,1.90
2019-03-11T11:43:27.464Z,1.50
2019-03-11T11:45:59.882Z,2.60
2019-03-11T11:48:33.948Z,1.00
2019-03-11T11:51:06.393Z,1.37
2019-03-11T11:53:39.971Z,1.20
2019-03-11T11:56:28.736Z,1.30
2019-03-11T11:58:59.253Z,1.37
2019-03-11T12:01:30.191Z,1.73
2019-03-11T12:04:03.432Z,1.47
2019-03-11T12:06:35.619Z,1.50
2019-03-11T12:09:08.304Z,1.30
2019-03-11T12:11:40.882Z,1.80
2019-03-11T12:14:18.427Z,1.97
2019-03-11T12:16:50.400Z,1.20
2019-03-11T12:19:21.253Z,1.47
2019-03-11T12:21:53.385Z,1.70
2019-03-11T12:24:26.528Z,1.63
2019-03-11T12:26:57.471Z,1.20
2019-03-11T12:29:40.941Z,1.10
2019-03-11T12:32:12.669Z,0.90
2019-03-11T12:34:45.641Z,1.50
2019-03-11T12:37:23.261Z,1.33
2019-03-11T12:39:56.377Z,1.17
2019-03-11T12:42:30.666Z,1.00
2019-03-11T12:45:20.048Z,0.80
2019-03-11T12:48:08.460Z,0.67
2019-03-11T12:50:43.577Z,0.90
2019-03-11T12:53:15.855Z,0.63
2019-03-11T12:55:50.615Z,0.70
2019-03-11T12:58:41.754Z,1.20
2019-03-11T13:01:13.101Z,0.80
2019-03-11T13:03:44.540Z,1.20
2019-03-11T13:06:18.334Z,2.40
2019-03-11T13:08:52.048Z,1.13
2019-03-11T13:11:29.233Z,0.80
2019-03-11T13:14:04.402Z,1.27
2019-03-11T13:16:38.221Z,1.33
2019-03-11T13:19:13.585Z,1.20
2019-03-11T13:22:28.788Z,1.13
2019-03-11T13:25:26.629Z,1.40
2019-03-11T13:28:20.156Z,1.00
2019-03-11T13:30:51.502Z,1.00
2019-03-11T13:33:24.286Z,1.17
2019-03-11T13:36:11.976Z,1.23
2019-03-11T13:38:44.788Z,1.27
2019-03-11T13:41:22.229Z,1.20
2019-03-11T13:44:06.818Z,1.00
2019-03-11T13:46:55.090Z,1.23
2019-03-11T13:49:26.867Z,1.10
2019-03-11T13:52:01.193Z,1.83
2019-03-11T13:54:39.899Z,1.13
2019-03-11T13:57:16.638Z,1.23
2019-03-11T13:59:53.242Z,2.67
2019-03-11T14:02:28.033Z,0.90
2019-03-11T14:05:17.508Z,0.90
2019-03-11T14:07:56.814Z,1.07
2019-03-11T14:10:28.880Z,1.20
2019-03-11T14:13:03.364Z,0.80
2019-03-11T14:15:36.880Z,1.10
2019-03-11T14:18:24.195Z,1.07
2019-03-11T14:20:56.749Z,1.20
2019-03-11T14:23:30.631Z,1.07
2019-03-11T14:26:34.587Z,1.50
2019-03-11T14:29:12.795Z,1.07
2019-03-11T14:31:44.652Z,1.90
2019-03-11T14:34:26.149Z,1.07
2019-03-11T14:36:56.979Z,0.70
2019-03-11T14:39:28.940Z,1.30
2019-03-11T14:42:01.863Z,1.17
2019-03-11T14:44:33.900Z,1.40
2019-03-11T14:47:06.750Z,1.00
2019-03-11T14:49:44.750Z,1.00
2019-03-11T14:52:17.948Z,0.80
2019-03-11T14:54:51.956Z,0.90
2019-03-11T14:57:40.524Z,1.13
2019-03-11T15:00:17.919Z,0.90
2019-03-11T15:02:52.101Z,1.60
2019-03-11T15:05:24.044Z,1.00
2019-03-11T15:07:55.797Z,1.23
2019-03-11T15:10:28.112Z,0.80
2019-03-11T15:13:17.590Z,1.20
2019-03-11T15:15:49.182Z,1.20
2019-03-11T15:18:22.101Z,1.00
2019-03-11T15:20:54.253Z,1.20
2019-03-11T15:23:27.081Z,0.90
2019-03-11T15:26:00.397Z,0.97
2019-03-11T15:28:33.307Z,0.70
2019-03-11T15:31:10.592Z,1.00
2019-03-11T15:33:39.357Z,0.97
2019-03-11T15:36:11.330Z,0.90
2019-03-11T15:38:41.779Z,1.23
2019-03-11T15:41:15.155Z,1.43
2019-03-11T15:43:48.909Z,1.63
2019-03-11T15:46:22.351Z,1.47
2019-03-11T15:48:56.744Z,1.10
2019-03-11T15:51:36.485Z,0.87
2019-03-11T15:54:09.644Z,1.10
2019-03-11T15:56:42.782Z,1.33
2019-03-11T15:59:14.384Z,1.30
2019-03-11T16:02:03.440Z,1.13
2019-03-11T16:04:55.540Z,0.80
2019-03-11T16:07:27.050Z,1.30
2019-03-11T16:10:00.575Z,1.43
2019-03-11T16:12:33.551Z,1.30
2019-03-11T16:15:07.449Z,1.00
2019-03-11T16:17:38.672Z,1.57
2019-03-11T16:20:12.852Z,1.17
2019-03-11T16:22:55.277Z,2.10
2019-03-11T16:25:57.887Z,1.50
2019-03-11T16:28:48.402Z,1.40
2019-03-11T16:31:47.434Z,1.23
2019-03-11T16:34:36.503Z,1.50
2019-03-11T16:37:27.270Z,2.30
2019-03-11T16:39:59.553Z,2.17
2019-03-11T16:42:32.282Z,1.50
2019-03-11T16:45:06.798Z,1.10
2019-03-11T16:47:39.215Z,1.20
2019-03-11T16:50:13.655Z,1.87
2019-03-11T16:53:52.263Z,2.10
2019-03-11T16:56:24.587Z,3.57
2019-03-11T16:59:04.640Z,2.63
2019-03-11T17:02:14.071Z,1.60
2019-03-11T17:04:52.288Z,1.40
2019-03-11T17:07:26.337Z,1.30
2019-03-11T17:10:00.012Z,2.80
2019-03-11T17:12:33.863Z,1.50
2019-03-11T17:15:07.524Z,1.33
2019-03-11T17:17:40.695Z,1.23
2019-03-11T17:20:13.025Z,2.00
2019-03-11T17:22:43.961Z,1.77
2019-03-11T17:25:14.893Z,1.57
2019-03-11T17:27:53.544Z,1.67
2019-03-11T17:30:27.720Z,1.57
2019-03-11T17:33:01.400Z,2.53
2019-03-11T17:35:36.684Z,1.90
2019-03-11T17:38:09.746Z,1.53
2019-03-11T17:40:41.426Z,1.50
2019-03-11T17:43:15.796Z,1.70
2019-03-11T17:45:49.892Z,1.83
2019-03-11T17:48:36.167Z,2.70
2019-03-11T17:51:10.085Z,2.40
2019-03-11T17:53:41.694Z,2.93
2019-03-11T17:56:20.796Z,3.00
2019-03-11T17:58:53.890Z,2.30
2019-03-11T18:01:28.032Z,4.10
2019-03-11T18:04:01.331Z,3.00
2019-03-11T18:06:32.959Z,2.50
2019-03-11T18:09:22.288Z,2.13
2019-03-11T18:11:53.853Z,1.70
2019-03-11T18:14:27.092Z,3.23
2019-03-11T18:16:58.663Z,2.07
2019-03-11T18:19:35.880Z,2.17
2019-03-11T18:22:10.883Z,2.30
2019-03-11T18:24:41.482Z,1.20
2019-03-11T18:27:16.125Z,1.20
2019-03-11T18:30:00.907Z,1.40
2019-03-11T18:32:32.277Z,1.63
2019-03-11T18:35:05.420Z,1.80
2019-03-11T18:37:35.887Z,1.73
2019-03-11T18:40:10.382Z,1.93
2019-03-11T18:42:40.853Z,2.70
2019-03-11T18:45:13.908Z,1.47
2019-03-11T18:47:47.259Z,3.80
2019-03-11T18:50:19.309Z,3.80
2019-03-11T18:52:52.906Z,4.20
2019-03-11T18:55:27.938Z,2.83
2019-03-11T18:58:00.696Z,2.70
2019-03-11T19:00:33.027Z,2.57
2019-03-11T19:03:06.344Z,2.27
2019-03-11T19:05:39.741Z,3.27
2019-03-11T19:08:12.308Z,2.33
2019-03-11T19:10:45.435Z,2.80
2019-03-11T19:13:17.711Z,2.27
2019-03-11T19:15:52.816Z,2.17
2019-03-11T19:18:23.500Z,2.00
2019-03-11T19:20:55.157Z,1.93
2019-03-11T19:23:27.621Z,1.80
2019-03-11T19:25:59.095Z,1.70
2019-03-11T19:28:32.176Z,2.40
2019-03-11T19:31:04.254Z,2.27
2019-03-11T19:33:37.568Z,2.37
2019-03-11T19:36:26.579Z,2.23
2019-03-11T19:39:04.711Z,2.83
2019-03-11T19:41:37.161Z,2.07
2019-03-11T19:44:11.128Z,2.30
2019-03-11T19:46:41.660Z,2.70
2019-03-11T19:49:14.101Z,3.00
2019-03-11T19:52:03.966Z,2.87
2019-03-11T19:54:59.205Z,2.70
2019-03-11T19:57:49.996Z,2.80
2019-03-11T20:00:22.537Z,2.23
2019-03-11T20:02:55.353Z,2.40
2019-03-11T20:05:27.428Z,2.17
2019-03-11T20:08:00.643Z,2.87
2019-03-11T20:10:33.472Z,3.10
2019-03-11T20:13:06.745Z,3.20
2019-03-11T20:15:39.557Z,2.80
2019-03-11T20:18:12.699Z,2.87
2019-03-11T20:20:46.515Z,2.43
2019-03-11T20:23:38.087Z,2.43
2019-03-11T20:26:28.817Z,3.30
2019-03-11T20:29:07.565Z,2.27
2019-03-11T20:31:40.123Z,2.87
2019-03-11T20:34:14.566Z,2.80
2019-03-11T20:36:46.410Z,2.20
2019-03-11T20:39:21.773Z,2.93
2019-03-11T20:42:10.675Z,2.83
2019-03-11T20:44:59.959Z,2.17
2019-03-11T20:47:49.163Z,2.83
2019-03-11T20:50:21.764Z,4.03
2019-03-11T20:52:54.788Z,3.83
2019-03-11T20:55:27.286Z,2.70
2019-03-11T20:58:05.272Z,2.50
2019-03-11T21:00:38.551Z,2.43
2019-03-11T21:03:10.656Z,2.40
2019-03-11T21:06:01.860Z,2.10
2019-03-11T21:08:35.424Z,2.20
2019-03-11T21:11:07.312Z,2.57
2019-03-11T21:13:56.590Z,2.70
2019-03-11T21:16:34.070Z,2.70
2019-03-11T21:19:06.203Z,2.37
2019-03-11T21:21:39.710Z,3.43
2019-03-11T21:24:13.809Z,3.10
2019-03-11T21:26:44.872Z,3.30
2019-03-11T21:29:23.464Z,4.03
2019-03-11T21:31:56.929Z,3.13
2019-03-11T21:34:45.640Z,3.60
2019-03-11T21:37:19.365Z,3.63
2019-03-11T21:39:53.171Z,5.07
2019-03-11T21:42:42.166Z,3.70
2019-03-11T21:45:34.544Z,3.73
2019-03-11T21:48:03.935Z,3.60
2019-03-11T21:50:38.545Z,3.90
2019-03-11T21:53:17.813Z,3.97
2019-03-11T21:55:50.821Z,4.07
2019-03-11T21:58:21.842Z,3.93
2019-03-11T22:00:54.249Z,3.97
2019-03-11T22:03:27.928Z,3.90
2019-03-11T22:06:16.278Z,3.80
2019-03-11T22:09:07.192Z,3.90
2019-03-11T22:11:39.938Z,5.50
2019-03-11T22:14:31.602Z,3.47
2019-03-11T22:17:14.800Z,3.67
2019-03-11T22:19:51.112Z,3.73
2019-03-11T22:22:40.780Z,3.67
2019-03-11T22:25:15.401Z,3.50
2019-03-11T22:27:51.842Z,4.27
2019-03-11T22:30:24.089Z,4.00
2019-03-11T22:33:09.084Z,4.33
2019-03-11T22:35:41.696Z,3.83
2019-03-11T22:38:15.246Z,4.30
2019-03-11T22:40:49.055Z,4.57
2019-03-11T22:43:22.090Z,4.03
2019-03-11T22:45:55.210Z,4.43
2019-03-11T22:48:27.481Z,3.97
2019-03-11T22:51:01.663Z,3.80
2019-03-11T22:53:32.491Z,3.60
2019-03-11T22:56:05.313Z,4.00
2019-03-11T22:58:35.948Z,3.90
2019-03-11T23:01:10.115Z,4.30
2019-03-11T23:03:50.377Z,3.57
2019-03-11T23:06:22.797Z,4.40
2019-03-11T23:08:55.269Z,4.20
2019-03-11T23:11:26.185Z,3.90
2019-03-11T23:14:00.736Z,3.90
2019-03-11T23:16:32.900Z,4.37
2019-03-11T23:19:03.305Z,3.63
2019-03-11T23:21:36.805Z,3.67
2019-03-11T23:24:09.460Z,3.50
2019-03-11T23:26:40.205Z,3.80
2019-03-11T23:29:11.261Z,3.67
2019-03-11T23:31:41.836Z,3.50
2019-03-11T23:34:13.956Z,4.30
2019-03-11T23:36:46.508Z,4.00
2019-03-11T23:39:20.430Z,3.50
2019-03-11T23:41:53.755Z,3.57
2019-03-11T23:44:24.343Z,4.17
2019-03-11T23:46:55.636Z,4.40
2019-03-11T23:49:28.215Z,4.20
2019-03-11T23:52:17.251Z,4.13
2019-03-11T23:54:51.511Z,4.20
2019-03-11T23:57:25.341Z,5.30
2019-03-11T23:59:55.932Z,4.93
